Time;durP1;ratioP1;P1;durP2;ratioP2;P2;SDS_P1;SDS_P2;PMS_P1;PMS_P2;Temp;Humidity;BMP_temperature;BMP_pressure;BME280_temperature;BME280_humidity;BME280_pressure;Samples;Min_cycle;Max_cycle;Signal;HPM_P1;HPM_P2
2022/08/28 00:02:02;;;;;;;6.93;1.98;;;20.00;99.90;;;;;;5049776;28;20036;-66
2022/08/28 00:04:28;;;;;;;9.10;1.63;;;20.00;99.90;;;;;;5048578;28;20032;-62
2022/08/28 00:06:53;;;;;;;9.48;2.25;;;20.10;99.90;;;;;;5044867;28;20033;-65
2022/08/28 00:09:19;;;;;;;8.93;1.85;;;20.10;99.90;;;;;;5043156;28;20029;-63
2022/08/28 00:11:45;;;;;;;11.07;2.03;;;20.10;99.90;;;;;;5049139;28;20029;-63
2022/08/28 00:14:12;;;;;;;11.88;2.00;;;20.10;99.90;;;;;;5050886;28;20021;-65
2022/08/28 00:16:38;;;;;;;6.47;2.15;;;20.10;99.90;;;;;;5052090;28;20112;-65
2022/08/28 00:19:04;;;;;;;11.32;1.83;;;20.10;99.90;;;;;;5053158;28;20621;-65
2022/08/28 00:21:32;;;;;;;10.23;1.83;;;20.00;99.90;;;;;;5055589;28;20024;-65
2022/08/28 00:23:58;;;;;;;13.15;1.80;;;20.00;99.90;;;;;;5046318;28;20178;-65
2022/08/28 00:29:08;;;;;;;11.45;1.65;;;20.00;99.90;;;;;;5054080;28;20504;-65
2022/08/28 00:31:37;;;;;;;8.85;1.60;;;20.10;99.90;;;;;;5055988;28;20041;-63
2022/08/28 00:34:03;;;;;;;9.02;2.78;;;20.00;99.90;;;;;;5053996;28;20085;-65
2022/08/28 00:36:29;;;;;;;6.43;1.92;;;20.00;99.90;;;;;;5048421;28;20033;-64
2022/08/28 00:38:55;;;;;;;6.35;1.50;;;20.00;99.90;;;;;;5051749;28;20391;-66
2022/08/28 00:41:21;;;;;;;3.33;1.55;;;20.00;99.90;;;;;;5054583;28;20110;-66
2022/08/28 00:43:48;;;;;;;8.65;2.00;;;19.90;99.90;;;;;;5054091;28;20030;-65
2022/08/28 00:46:21;;;;;;;3.92;1.20;;;20.00;99.90;;;;;;5049118;28;20525;-64
2022/08/28 00:48:48;;;;;;;11.90;1.77;;;19.90;99.90;;;;;;5047109;28;20174;-65
2022/08/28 00:54:00;;;;;;;6.03;1.75;;;19.90;99.90;;;;;;5045863;28;20086;-64
2022/08/28 00:56:28;;;;;;;9.65;2.00;;;19.90;99.90;;;;;;5052095;28;20025;-64
2022/08/28 00:58:56;;;;;;;9.32;1.83;;;19.90;99.90;;;;;;5049791;28;20092;-65
2022/08/28 01:01:22;;;;;;;6.07;1.88;;;19.90;99.90;;;;;;5051013;28;20039;-65
2022/08/28 01:03:48;;;;;;;6.80;1.80;;;19.90;99.90;;;;;;5058107;28;20104;-64
2022/08/28 01:06:15;;;;;;;8.98;1.48;;;19.90;99.90;;;;;;5044229;28;20518;-65
2022/08/28 01:08:44;;;;;;;5.78;1.73;;;19.90;99.90;;;;;;5050545;28;20024;-65
2022/08/28 01:11:12;;;;;;;3.78;1.27;;;19.90;99.90;;;;;;5047731;28;20021;-64
2022/08/28 01:13:40;;;;;;;7.97;1.83;;;19.80;99.90;;;;;;5053960;28;20025;-64
2022/08/28 01:16:06;;;;;;;6.80;1.45;;;19.90;99.90;;;;;;5071889;28;20017;-65
2022/08/28 01:18:33;;;;;;;9.65;1.33;;;19.80;99.90;;;;;;5047970;28;20104;-65
2022/08/28 01:21:15;;;;;;;4.78;1.70;;;19.80;99.90;;;;;;5051300;28;20037;-65
2022/08/28 01:23:58;;;;;;;8.50;1.60;;;19.80;99.90;;;;;;5054063;28;20045;-65
2022/08/28 01:26:26;;;;;;;9.05;1.60;;;19.80;99.90;;;;;;5047246;28;20549;-65
2022/08/28 01:28:52;;;;;;;7.97;2.10;;;19.80;99.90;;;;;;5054560;28;20036;-65
2022/08/28 01:31:18;;;;;;;8.63;1.77;;;19.80;99.90;;;;;;5053765;28;20445;-67
2022/08/28 01:33:45;;;;;;;5.05;1.42;;;19.70;99.90;;;;;;5045232;28;20067;-64
2022/08/28 01:36:12;;;;;;;8.00;2.47;;;19.70;99.90;;;;;;5050407;28;20031;-65
2022/08/28 01:38:39;;;;;;;6.18;1.55;;;19.70;99.90;;;;;;5048612;28;20556;-65
2022/08/28 01:41:05;;;;;;;12.63;1.75;;;19.80;99.90;;;;;;5048266;28;20394;-62
2022/08/28 01:43:31;;;;;;;6.30;2.72;;;19.70;99.90;;;;;;5043018;28;20024;-65
2022/08/28 01:46:00;;;;;;;6.70;1.80;;;19.70;99.90;;;;;;5044845;28;20385;-64
2022/08/28 01:48:27;;;;;;;9.25;1.30;;;19.70;99.90;;;;;;5047839;28;20508;-64
2022/08/28 01:50:54;;;;;;;4.30;1.92;;;19.70;99.90;;;;;;5047475;28;20037;-65
2022/08/28 01:53:22;;;;;;;8.25;1.30;;;19.70;99.90;;;;;;5044117;28;20092;-64
2022/08/28 01:55:48;;;;;;;4.18;1.17;;;19.70;99.90;;;;;;5077796;22;20463;-63
2022/08/28 01:58:15;;;;;;;7.15;1.42;;;19.70;99.90;;;;;;5048915;28;20028;-64
2022/08/28 02:00:41;;;;;;;7.05;1.55;;;19.70;99.90;;;;;;5053240;28;20032;-63
2022/08/28 02:03:07;;;;;;;4.85;1.20;;;19.60;99.90;;;;;;5049257;28;20094;-66
2022/08/28 02:05:34;;;;;;;9.20;1.77;;;19.60;99.90;;;;;;5036326;28;20037;-63
2022/08/28 02:08:01;;;;;;;2.88;0.90;;;19.60;99.90;;;;;;5033472;28;20032;-62
2022/08/28 02:10:28;;;;;;;5.72;1.55;;;19.60;99.90;;;;;;5039940;28;20499;-59
2022/08/28 02:12:55;;;;;;;6.32;1.33;;;19.60;99.90;;;;;;5031658;28;20029;-63
2022/08/28 02:15:23;;;;;;;10.77;1.52;;;19.60;99.90;;;;;;5029591;28;20037;-63
2022/08/28 02:17:49;;;;;;;4.82;1.17;;;19.60;99.90;;;;;;5032841;28;20029;-61
2022/08/28 02:20:15;;;;;;;4.82;1.33;;;19.50;99.90;;;;;;5028745;28;20036;-61
2022/08/28 02:22:40;;;;;;;2.05;1.02;;;19.50;99.90;;;;;;5030743;28;20401;-61
2022/08/28 02:25:07;;;;;;;3.88;1.10;;;19.50;99.90;;;;;;5028481;28;20452;-61
2022/08/28 02:27:33;;;;;;;6.22;1.00;;;19.50;99.90;;;;;;5031166;28;20025;-61
2022/08/28 02:29:58;;;;;;;10.52;1.50;;;19.40;99.90;;;;;;5030982;28;20043;-61
2022/08/28 02:32:25;;;;;;;4.90;0.80;;;19.50;99.90;;;;;;5033403;28;20025;-62
2022/08/28 02:34:51;;;;;;;7.28;1.40;;;19.50;99.90;;;;;;5025190;28;20057;-63
2022/08/28 02:37:17;;;;;;;4.93;1.35;;;19.50;99.90;;;;;;5031368;28;20021;-60
2022/08/28 02:39:43;;;;;;;6.50;1.13;;;19.40;99.90;;;;;;5029663;28;20064;-62
2022/08/28 02:42:09;;;;;;;4.35;0.95;;;19.40;99.90;;;;;;5028643;28;20040;-61
2022/08/28 02:44:35;;;;;;;5.93;1.00;;;19.30;99.90;;;;;;5028992;28;20125;-61
2022/08/28 02:47:02;;;;;;;13.25;1.52;;;19.30;99.90;;;;;;5039271;28;20029;-62
2022/08/28 02:49:27;;;;;;;10.95;1.60;;;19.30;99.90;;;;;;5035699;28;20025;-63
2022/08/28 02:51:55;;;;;;;3.63;1.23;;;19.30;99.90;;;;;;5026402;28;20049;-65
2022/08/28 02:54:21;;;;;;;4.90;0.98;;;19.30;99.90;;;;;;5028848;28;20107;-60
2022/08/28 02:56:46;;;;;;;7.45;1.00;;;19.30;99.90;;;;;;5028544;28;20559;-62
2022/08/28 02:59:12;;;;;;;5.40;1.55;;;19.20;99.90;;;;;;5027998;28;20514;-64
2022/08/28 03:01:38;;;;;;;9.38;1.27;;;19.20;99.90;;;;;;5032607;28;20022;-64
2022/08/28 03:04:04;;;;;;;8.38;1.50;;;19.20;99.90;;;;;;5033534;28;20060;-63
2022/08/28 03:06:30;;;;;;;6.78;1.42;;;19.10;99.90;;;;;;5029146;28;20395;-64
2022/08/28 03:08:56;;;;;;;10.30;1.63;;;19.10;99.90;;;;;;5026777;28;20030;-64
2022/08/28 03:11:22;;;;;;;9.98;1.65;;;19.00;99.90;;;;;;5034183;28;20087;-63
2022/08/28 03:13:48;;;;;;;5.68;1.45;;;19.00;99.90;;;;;;5031358;28;20067;-64
2022/08/28 03:16:14;;;;;;;24.83;4.43;;;18.90;99.90;;;;;;5037645;28;20165;-63
2022/08/28 03:18:40;;;;;;;7.25;1.10;;;18.90;99.90;;;;;;5036512;28;20539;-63
2022/08/28 03:21:06;;;;;;;6.88;1.70;;;18.90;99.90;;;;;;5029914;28;20025;-64
2022/08/28 03:23:32;;;;;;;8.85;1.42;;;18.80;99.90;;;;;;5032563;28;20025;-63
2022/08/28 03:25:59;;;;;;;20.40;1.60;;;18.80;99.90;;;;;;5027465;28;20037;-63
2022/08/28 03:28:27;;;;;;;3.92;1.15;;;18.80;99.90;;;;;;5027332;28;20025;-63
2022/08/28 03:30:53;;;;;;;5.13;1.33;;;18.80;99.90;;;;;;5034374;28;20525;-63
2022/08/28 03:33:19;;;;;;;7.40;1.20;;;18.70;99.90;;;;;;5029807;28;20096;-64
2022/08/28 03:35:44;;;;;;;7.13;1.55;;;18.70;99.90;;;;;;5032487;28;20029;-63
2022/08/28 03:38:10;;;;;;;5.22;1.33;;;18.70;99.90;;;;;;5030880;28;20033;-64
2022/08/28 03:40:41;;;;;;;7.30;1.58;;;18.70;99.90;;;;;;5032263;28;20032;-63
2022/08/28 03:43:08;;;;;;;11.15;1.98;;;18.60;99.90;;;;;;5032398;28;20026;-63
2022/08/28 03:45:34;;;;;;;9.10;1.27;;;18.60;99.90;;;;;;5038125;28;20033;-62
2022/08/28 03:47:59;;;;;;;7.43;1.88;;;18.60;99.90;;;;;;5031675;28;20033;-63
2022/08/28 03:50:25;;;;;;;4.93;1.80;;;18.60;99.90;;;;;;5031950;28;20040;-63
2022/08/28 03:52:50;;;;;;;6.32;2.00;;;18.50;99.90;;;;;;5034048;28;20029;-64
2022/08/28 03:55:18;;;;;;;8.00;2.03;;;18.50;99.90;;;;;;5036301;28;20059;-63
2022/08/28 03:57:44;;;;;;;12.55;2.58;;;18.40;99.90;;;;;;5037309;28;20025;-63
2022/08/28 04:00:12;;;;;;;10.85;2.13;;;18.40;99.90;;;;;;5037131;28;20025;-62
2022/08/28 04:02:41;;;;;;;8.65;1.80;;;18.40;99.90;;;;;;5023299;28;20029;-63
2022/08/28 04:05:08;;;;;;;12.90;1.70;;;18.40;99.90;;;;;;5042057;28;20075;-63
2022/08/28 04:07:34;;;;;;;10.13;1.90;;;18.30;99.90;;;;;;5032442;28;20776;-61
2022/08/28 04:10:00;;;;;;;5.85;1.83;;;18.30;99.90;;;;;;5033240;28;20022;-64
2022/08/28 04:12:26;;;;;;;7.85;2.28;;;18.30;99.90;;;;;;5038252;28;20025;-65
2022/08/28 04:14:51;;;;;;;10.30;2.05;;;18.30;99.90;;;;;;5036950;28;20025;-64
2022/08/28 04:17:17;;;;;;;12.23;1.90;;;18.20;99.90;;;;;;5042676;28;20028;-64
2022/08/28 04:19:43;;;;;;;12.85;2.00;;;18.20;99.90;;;;;;5036156;28;20340;-64
2022/08/28 04:22:09;;;;;;;9.85;2.33;;;18.10;99.90;;;;;;5034679;28;20631;-64
2022/08/28 04:24:35;;;;;;;9.52;2.28;;;18.10;99.90;;;;;;5035931;28;20025;-64
2022/08/28 04:27:01;;;;;;;12.57;2.53;;;18.10;99.90;;;;;;5026662;28;20132;-63
2022/08/28 04:29:26;;;;;;;11.82;2.17;;;18.00;99.90;;;;;;5033622;28;20039;-63
2022/08/28 04:31:52;;;;;;;6.53;2.20;;;18.00;99.90;;;;;;5038907;28;20034;-64
2022/08/28 04:34:18;;;;;;;8.07;2.83;;;17.90;99.90;;;;;;5031835;28;20133;-63
2022/08/28 04:36:44;;;;;;;17.98;2.80;;;17.80;99.90;;;;;;5034943;28;20487;-63
2022/08/28 04:39:10;;;;;;;10.00;2.17;;;17.80;99.90;;;;;;5035007;28;20120;-61
2022/08/28 04:41:37;;;;;;;10.32;3.10;;;17.80;99.90;;;;;;5037705;28;20136;-62
2022/08/28 04:44:03;;;;;;;10.35;2.53;;;17.80;99.90;;;;;;5033468;28;20040;-60
2022/08/28 04:46:29;;;;;;;18.27;2.95;;;17.80;99.90;;;;;;5039602;28;20034;-59
2022/08/28 04:48:55;;;;;;;14.02;2.70;;;17.70;99.90;;;;;;5019933;28;20022;-62
2022/08/28 04:51:21;;;;;;;12.68;3.08;;;17.70;99.90;;;;;;5028598;28;20049;-63
2022/08/28 04:53:47;;;;;;;13.43;4.25;;;17.70;99.90;;;;;;5031893;28;20029;-61
2022/08/28 04:56:14;;;;;;;9.77;3.28;;;17.70;99.90;;;;;;5031785;28;20029;-62
2022/08/28 04:58:41;;;;;;;9.18;3.05;;;17.70;99.90;;;;;;5033784;28;20112;-60
2022/08/28 05:01:14;;;;;;;10.85;4.20;;;17.60;99.90;;;;;;5030268;28;20041;-60
2022/08/28 05:03:40;;;;;;;16.00;2.65;;;17.60;99.90;;;;;;5037896;28;20041;-63
2022/08/28 05:06:06;;;;;;;6.95;2.63;;;17.60;99.90;;;;;;5030181;28;20037;-63
2022/08/28 05:08:32;;;;;;;14.40;3.65;;;17.60;99.90;;;;;;5031875;28;20064;-60
2022/08/28 05:11:15;;;;;;;6.88;3.28;;;17.50;99.90;;;;;;5032556;28;20082;-62
2022/08/28 05:13:41;;;;;;;10.75;2.85;;;17.50;99.90;;;;;;5030206;28;20030;-62
2022/08/28 05:16:07;;;;;;;18.55;3.08;;;17.40;99.90;;;;;;5026377;28;20026;-61
2022/08/28 05:18:33;;;;;;;17.73;3.42;;;17.40;99.90;;;;;;5023444;28;20024;-64
2022/08/28 05:21:00;;;;;;;9.00;3.08;;;17.40;99.90;;;;;;5012895;28;20111;-61
2022/08/28 05:23:26;;;;;;;8.05;2.83;;;17.50;99.90;;;;;;5032520;28;20048;-64
2022/08/28 05:25:52;;;;;;;12.05;3.10;;;17.50;99.90;;;;;;5032907;28;20236;-62
2022/08/28 05:28:18;;;;;;;22.88;3.80;;;17.50;99.90;;;;;;5037530;28;20035;-65
2022/08/28 05:30:44;;;;;;;14.27;3.70;;;17.50;99.90;;;;;;5030527;28;20037;-63
2022/08/28 05:33:12;;;;;;;13.63;3.20;;;17.60;99.90;;;;;;5031574;28;20530;-63
2022/08/28 05:35:41;;;;;;;15.18;3.78;;;17.60;99.90;;;;;;5036713;28;20029;-63
2022/08/28 05:38:07;;;;;;;9.00;3.10;;;17.60;99.90;;;;;;5030295;28;20029;-63
2022/08/28 05:40:48;;;;;;;18.75;3.75;;;17.60;99.90;;;;;;5029978;28;20092;-62
2022/08/28 05:43:15;;;;;;;14.88;4.85;;;17.60;99.90;;;;;;5040009;28;20494;-63
2022/08/28 05:45:41;;;;;;;17.95;3.35;;;17.60;99.90;;;;;;5033836;28;20057;-63
2022/08/28 05:48:07;;;;;;;13.43;3.80;;;17.70;99.90;;;;;;5038271;28;20055;-63
2022/08/28 05:50:36;;;;;;;14.38;4.25;;;17.70;99.90;;;;;;5031107;28;20595;-63
2022/08/28 05:53:01;;;;;;;13.88;3.60;;;17.70;99.90;;;;;;5033261;28;20056;-62
2022/08/28 05:55:27;;;;;;;12.82;3.15;;;17.70;99.90;;;;;;5032333;28;20448;-63
2022/08/28 05:57:52;;;;;;;15.95;3.35;;;17.80;99.90;;;;;;5039176;28;20052;-63
2022/08/28 06:00:19;;;;;;;14.55;4.03;;;17.80;99.90;;;;;;5031377;28;20076;-62
2022/08/28 06:02:44;;;;;;;12.77;3.85;;;17.80;99.90;;;;;;5027410;28;20495;-63
2022/08/28 06:05:10;;;;;;;16.02;4.47;;;17.80;99.90;;;;;;5036160;28;20044;-63
2022/08/28 06:07:36;;;;;;;10.57;3.67;;;17.80;99.90;;;;;;5009842;28;20029;-61
2022/08/28 06:10:02;;;;;;;13.57;3.97;;;17.80;99.90;;;;;;5028356;28;20083;-64
2022/08/28 06:12:28;;;;;;;18.10;3.72;;;17.80;99.90;;;;;;5028895;28;20057;-61
2022/08/28 06:14:53;;;;;;;10.50;3.95;;;18.00;99.90;;;;;;5031199;28;20064;-62
2022/08/28 06:17:21;;;;;;;13.68;3.83;;;17.90;99.90;;;;;;5029312;28;20030;-63
2022/08/28 06:19:47;;;;;;;13.70;3.90;;;17.90;99.90;;;;;;5026253;28;20033;-61
2022/08/28 06:22:13;;;;;;;21.80;4.03;;;17.90;99.90;;;;;;5027355;28;20030;-60
2022/08/28 06:24:39;;;;;;;13.45;4.40;;;17.80;99.90;;;;;;5030938;28;20033;-62
2022/08/28 06:27:05;;;;;;;15.43;4.10;;;17.80;99.90;;;;;;5028169;28;20028;-58
2022/08/28 06:29:31;;;;;;;13.95;3.45;;;17.80;99.90;;;;;;5032638;28;20030;-63
2022/08/28 06:32:02;;;;;;;14.57;3.83;;;17.80;99.90;;;;;;5034803;28;20092;-63
2022/08/28 06:34:28;;;;;;;19.20;4.00;;;17.80;99.90;;;;;;5024903;28;20490;-63
2022/08/28 06:36:54;;;;;;;19.45;4.20;;;17.70;99.90;;;;;;5030122;28;20071;-63
2022/08/28 06:39:20;;;;;;;12.43;3.40;;;17.70;99.90;;;;;;5033487;28;20033;-65
2022/08/28 06:41:45;;;;;;;17.33;4.43;;;17.70;99.90;;;;;;5037835;28;20025;-63
2022/08/28 06:44:18;;;;;;;16.50;3.65;;;17.70;99.90;;;;;;5031177;28;20454;-62
2022/08/28 06:46:44;;;;;;;18.95;3.90;;;17.80;99.90;;;;;;5032663;28;20048;-64
2022/08/28 06:49:11;;;;;;;10.95;3.20;;;17.90;99.90;;;;;;5025528;28;20075;-64
2022/08/28 06:51:37;;;;;;;21.40;4.05;;;17.90;99.90;;;;;;5035949;28;20033;-63
2022/08/28 06:54:04;;;;;;;18.67;3.95;;;18.00;99.90;;;;;;5031871;28;20064;-62
2022/08/28 06:56:30;;;;;;;18.88;4.07;;;18.00;99.90;;;;;;5030498;28;20016;-63
2022/08/28 06:58:57;;;;;;;11.43;3.33;;;18.00;99.90;;;;;;5035697;28;20033;-62
2022/08/28 07:01:33;;;;;;;21.90;4.32;;;18.10;99.90;;;;;;5037915;28;20036;-63
2022/08/28 07:04:02;;;;;;;20.05;4.10;;;18.10;99.90;;;;;;5028715;28;20041;-64
2022/08/28 07:06:32;;;;;;;13.55;3.70;;;18.10;99.90;;;;;;5031570;28;20850;-62
2022/08/28 07:08:58;;;;;;;10.20;3.47;;;18.20;99.90;;;;;;5024818;28;20021;-63
2022/08/28 07:11:27;;;;;;;11.93;3.55;;;18.20;99.90;;;;;;5030425;28;20060;-63
2022/08/28 07:13:54;;;;;;;17.35;3.65;;;18.20;99.90;;;;;;5015514;28;20048;-64
2022/08/28 07:16:22;;;;;;;15.38;3.30;;;18.10;99.90;;;;;;5029970;28;20429;-63
2022/08/28 07:18:48;;;;;;;13.40;4.05;;;18.10;99.90;;;;;;5031334;28;20036;-63
2022/08/28 07:21:14;;;;;;;15.93;3.75;;;18.20;99.90;;;;;;5029941;28;20033;-63
2022/08/28 07:23:41;;;;;;;19.15;3.85;;;18.30;99.90;;;;;;5023394;28;20025;-58
2022/08/28 07:26:10;;;;;;;13.02;4.18;;;18.30;99.90;;;;;;5024818;28;20030;-61
2022/08/28 07:28:36;;;;;;;12.20;3.28;;;18.30;99.90;;;;;;5024475;28;20026;-62
2022/08/28 07:31:06;;;;;;;14.50;3.65;;;18.40;99.90;;;;;;5035977;28;20037;-63
2022/08/28 07:33:32;;;;;;;15.13;3.42;;;18.40;99.90;;;;;;5044100;28;20111;-63
2022/08/28 07:35:58;;;;;;;8.73;3.95;;;18.50;99.90;;;;;;5035552;28;20565;-61
2022/08/28 07:38:25;;;;;;;16.20;3.38;;;18.60;99.90;;;;;;5036422;28;20486;-61
2022/08/28 07:40:51;;;;;;;17.33;3.63;;;18.50;99.90;;;;;;5030445;28;20025;-63
2022/08/28 07:46:05;;;;;;;11.48;2.78;;;18.70;99.90;;;;;;5041482;28;20167;-63
2022/08/28 07:48:32;;;;;;;15.73;3.00;;;18.90;99.90;;;;;;5034426;28;20022;-63
2022/08/28 07:50:58;;;;;;;12.93;3.17;;;19.00;99.90;;;;;;5034069;28;20536;-64
2022/08/28 07:53:23;;;;;;;12.88;3.20;;;19.10;99.90;;;;;;5032956;28;20112;-63
2022/08/28 07:55:50;;;;;;;13.77;2.83;;;19.10;99.90;;;;;;5032098;28;20040;-60
2022/08/28 07:58:17;;;;;;;9.65;3.28;;;19.00;99.90;;;;;;5075828;22;20044;-60
2022/08/28 08:00:42;;;;;;;15.00;2.90;;;18.90;99.90;;;;;;5070078;28;20027;-59
2022/08/28 08:03:08;;;;;;;14.90;2.92;;;18.90;99.90;;;;;;5076706;28;20028;-60
2022/08/28 08:05:33;;;;;;;9.50;3.22;;;19.00;99.90;;;;;;5068399;28;20028;-61
2022/08/28 08:07:59;;;;;;;9.80;2.80;;;19.10;99.90;;;;;;5065910;28;20033;-57
2022/08/28 08:10:25;;;;;;;8.32;2.83;;;19.30;99.90;;;;;;5058513;28;20025;-61
2022/08/28 08:12:51;;;;;;;18.17;2.80;;;19.40;99.90;;;;;;5056145;28;20445;-59
2022/08/28 08:15:16;;;;;;;11.13;2.80;;;19.50;99.90;;;;;;5051197;28;20021;-58
2022/08/28 08:17:42;;;;;;;12.88;3.10;;;19.60;99.90;;;;;;5055448;28;20017;-59
2022/08/28 08:20:08;;;;;;;14.85;3.03;;;19.60;99.90;;;;;;5054088;28;20139;-60
2022/08/28 08:22:34;;;;;;;6.85;2.25;;;19.60;99.90;;;;;;5057617;28;20095;-62
2022/08/28 08:25:02;;;;;;;9.73;3.10;;;19.60;99.90;;;;;;5054147;28;20075;-61
2022/08/28 08:27:28;;;;;;;14.65;2.83;;;19.50;99.90;;;;;;5051685;28;20056;-60
2022/08/28 08:29:54;;;;;;;14.90;3.13;;;19.30;99.90;;;;;;5054678;28;20466;-59
2022/08/28 08:32:19;;;;;;;14.15;3.25;;;19.20;99.90;;;;;;5048942;28;20033;-61
2022/08/28 08:34:45;;;;;;;12.73;2.97;;;19.10;99.90;;;;;;5055298;28;20063;-62
2022/08/28 08:37:12;;;;;;;13.75;2.53;;;19.20;99.90;;;;;;5053213;28;20055;-63
2022/08/28 08:39:38;;;;;;;15.05;3.05;;;19.20;99.90;;;;;;5056408;28;20020;-61
2022/08/28 08:42:17;;;;;;;12.15;2.47;;;19.20;99.90;;;;;;5049075;28;20037;-61
2022/08/28 08:44:46;;;;;;;10.18;2.40;;;19.20;99.90;;;;;;5045592;28;20100;-60
2022/08/28 08:47:23;;;;;;;8.65;2.78;;;19.30;99.90;;;;;;5046980;28;20028;-61
2022/08/28 08:49:57;;;;;;;9.43;2.80;;;19.40;99.90;;;;;;5048800;28;20025;-58
2022/08/28 08:52:27;;;;;;;;;;;19.40;99.90;;;;;;5050484;28;20469;-57
2022/08/28 08:55:30;;;;;;;20.02;2.88;;;19.40;99.90;;;;;;5040508;28;19908;-59
2022/08/28 08:58:08;;;;;;;12.57;1.95;;;19.30;99.90;;;;;;5021290;28;20124;-62
2022/08/28 09:00:57;;;;;;;9.25;2.97;;;19.40;99.90;;;;;;5045942;28;20029;-62
2022/08/28 09:03:31;;;;;;;14.68;3.40;;;19.50;99.90;;;;;;5038145;28;20519;-63
2022/08/28 09:06:04;;;;;;;10.23;2.45;;;19.60;99.90;;;;;;5037762;28;20495;-63
2022/08/28 09:08:39;;;;;;;11.48;3.03;;;19.70;99.90;;;;;;5044781;28;20120;-58
2022/08/28 09:11:20;;;;;;;11.80;2.38;;;19.70;99.90;;;;;;5040747;28;20123;-60
2022/08/28 09:13:58;;;;;;;17.75;3.05;;;19.90;99.90;;;;;;5035688;28;20013;-59
2022/08/28 09:16:33;;;;;;;12.82;2.92;;;19.90;99.90;;;;;;5041454;28;20383;-61
2022/08/28 09:19:00;;;;;;;12.88;2.70;;;20.00;99.90;;;;;;5044242;28;20109;-63
2022/08/28 09:21:32;;;;;;;11.75;2.97;;;20.20;99.90;;;;;;5050798;28;20110;-62
2022/08/28 09:24:04;;;;;;;12.02;2.33;;;20.20;99.90;;;;;;5038634;28;20029;-62
2022/08/28 09:26:30;;;;;;;12.25;2.35;;;20.30;99.90;;;;;;5049633;28;20106;-60
2022/08/28 09:29:12;;;;;;;13.23;3.13;;;20.20;99.90;;;;;;5044207;28;20134;-58
2022/08/28 09:31:42;;;;;;;11.50;2.70;;;20.20;99.90;;;;;;5043646;28;20048;-62
2022/08/28 09:34:33;;;;;;;18.52;2.40;;;20.10;99.90;;;;;;5043787;28;20116;-63
2022/08/28 09:36:59;;;;;;;11.70;2.78;;;20.20;99.90;;;;;;5030140;28;20044;-62
2022/08/28 09:39:34;;;;;;;10.88;2.35;;;20.20;99.90;;;;;;5043989;28;20535;-60
2022/08/28 09:44:50;;;;;;;14.30;2.42;;;20.20;99.90;;;;;;5047076;28;20074;-60
2022/08/28 09:47:35;;;;;;;9.57;2.58;;;20.30;99.90;;;;;;5038742;28;20029;-61
2022/08/28 09:50:18;;;;;;;8.90;2.47;;;20.60;99.90;;;;;;5042282;28;20056;-60
2022/08/28 09:52:44;;;;;;;8.15;2.05;;;20.90;99.90;;;;;;5041268;28;20012;-59
2022/08/28 09:55:16;;;;;;;7.18;2.15;;;21.00;99.90;;;;;;5037535;28;20018;-61
2022/08/28 09:57:45;;;;;;;12.80;2.30;;;21.10;99.90;;;;;;5037745;28;20028;-59
2022/08/28 10:00:12;;;;;;;9.00;1.92;;;21.10;99.90;;;;;;5035923;28;20021;-59
2022/08/28 10:02:47;;;;;;;9.02;2.35;;;21.30;99.90;;;;;;5044241;28;20402;-61
2022/08/28 10:05:15;;;;;;;14.18;2.20;;;21.30;99.90;;;;;;5047518;28;20068;-62
2022/08/28 10:07:54;;;;;;;13.68;2.22;;;21.50;99.90;;;;;;5048580;28;20036;-61
2022/08/28 10:10:34;;;;;;;17.58;3.08;;;21.70;99.90;;;;;;5048012;28;20033;-61
2022/08/28 10:13:30;;;;;;;9.60;2.53;;;21.90;99.90;;;;;;5041173;28;20051;-57
2022/08/28 10:16:10;;;;;;;13.93;2.78;;;22.00;99.90;;;;;;5038145;28;20033;-58
2022/08/28 10:18:49;;;;;;;10.98;2.13;;;22.00;99.90;;;;;;5040793;28;20079;-59
2022/08/28 10:21:25;;;;;;;9.80;2.35;;;22.10;99.90;;;;;;5042065;28;20022;-58
2022/08/28 10:24:20;;;;;;;8.43;2.55;;;22.30;99.90;;;;;;5046376;28;20108;-59
2022/08/28 10:27:17;;;;;;;11.98;2.50;;;22.00;99.90;;;;;;5057016;28;20051;-64
2022/08/28 10:30:08;;;;;;;8.82;2.45;;;22.30;99.90;;;;;;5036232;28;20591;-59
2022/08/28 10:32:39;;;;;;;11.02;2.28;;;22.40;99.90;;;;;;5053948;28;20017;-62
2022/08/28 10:35:19;;;;;;;14.93;2.20;;;22.20;99.90;;;;;;5042963;28;20445;-60
2022/08/28 10:38:40;;;;;;;15.43;2.78;;;22.10;99.90;;;;;;5038947;28;20020;-60
2022/08/28 10:41:15;;;;;;;10.80;1.88;;;22.10;99.90;;;;;;5023965;28;20495;-60
2022/08/28 10:43:46;;;;;;;4.60;1.98;;;22.30;99.90;;;;;;5042621;28;20095;-60
2022/08/28 10:46:23;;;;;;;17.63;2.92;;;22.50;99.90;;;;;;5046108;28;20021;-59
2022/08/28 10:49:19;;;;;;;6.22;2.08;;;22.50;99.90;;;;;;5064288;28;20671;-59
2022/08/28 10:52:17;;;;;;;6.95;2.13;;;22.60;99.90;;;;;;5049798;28;20113;-58
2022/08/28 10:55:08;;;;;;;6.57;1.98;;;22.40;99.90;;;;;;5042786;28;20043;-61
2022/08/28 10:57:51;;;;;;;7.63;2.45;;;22.40;99.90;;;;;;5038684;28;20060;-62
2022/08/28 11:00:20;;;;;;;5.85;2.17;;;22.70;99.90;;;;;;5045407;28;20040;-60
2022/08/28 11:02:56;;;;;;;9.00;2.72;;;23.10;99.90;;;;;;5034600;28;20090;-62
2022/08/28 11:05:26;;;;;;;9.27;2.78;;;23.50;99.90;;;;;;5045155;28;20025;-58
2022/08/28 11:07:59;;;;;;;7.90;2.13;;;23.70;99.90;;;;;;5044550;28;20029;-61
2022/08/28 11:10:30;;;;;;;10.00;2.28;;;23.90;99.90;;;;;;5043380;28;20036;-62
2022/08/28 11:12:57;;;;;;;8.32;2.05;;;23.80;99.90;;;;;;5041707;28;20028;-62
2022/08/28 11:15:31;;;;;;;9.05;2.20;;;23.80;99.90;;;;;;5044847;28;20104;-64
2022/08/28 11:18:29;;;;;;;10.95;2.13;;;23.80;99.90;;;;;;5040991;28;20109;-63
2022/08/28 11:21:04;;;;;;;10.82;3.00;;;23.70;99.90;;;;;;5040548;28;20033;-62
2022/08/28 11:23:47;;;;;;;13.70;2.80;;;23.50;99.90;;;;;;5037753;28;20021;-59
2022/08/28 11:26:21;;;;;;;6.90;2.10;;;23.70;99.90;;;;;;5037811;28;20037;-61
2022/08/28 11:28:47;;;;;;;7.07;2.55;;;23.60;99.90;;;;;;5042978;28;20025;-59
2022/08/28 11:31:12;;;;;;;10.77;2.63;;;23.70;99.90;;;;;;5042265;28;20111;-61
2022/08/28 11:33:47;;;;;;;8.30;2.20;;;23.80;99.90;;;;;;5044877;28;20487;-62
2022/08/28 11:36:18;;;;;;;5.35;2.17;;;24.30;99.90;;;;;;5048734;28;20021;-61
2022/08/28 11:38:44;;;;;;;13.15;2.70;;;24.40;99.90;;;;;;5040850;28;20025;-62
2022/08/28 11:41:21;;;;;;;8.25;1.83;;;24.40;99.90;;;;;;5041882;28;20052;-61
2022/08/28 11:44:03;;;;;;;7.32;1.92;;;24.20;99.90;;;;;;5043171;28;20454;-61
2022/08/28 11:46:33;;;;;;;11.52;1.70;;;24.30;99.90;;;;;;5041457;28;20036;-59
2022/08/28 11:49:01;;;;;;;7.85;2.35;;;24.80;99.90;;;;;;5043071;28;20094;-61
2022/08/28 11:51:49;;;;;;;8.70;1.60;;;24.80;99.90;;;;;;5039417;28;20143;-64
2022/08/28 11:54:26;;;;;;;5.47;2.08;;;25.00;99.90;;;;;;5040862;28;20030;-61
2022/08/28 11:57:04;;;;;;;5.82;1.92;;;24.80;99.90;;;;;;5048647;28;20505;-61
2022/08/28 11:59:38;;;;;;;7.15;2.55;;;24.90;99.90;;;;;;5048428;28;20025;-61
2022/08/28 12:02:37;;;;;;;9.63;2.47;;;25.00;99.90;;;;;;5043303;28;20086;-59
2022/08/28 12:05:14;;;;;;;6.05;2.05;;;25.30;99.90;;;;;;5043503;28;20160;-61
2022/08/28 12:07:42;;;;;;;8.25;1.85;;;25.20;99.90;;;;;;5048455;28;20475;-62
2022/08/28 12:10:24;;;;;;;6.70;1.70;;;25.00;99.90;;;;;;5042377;28;20029;-63
2022/08/28 12:12:54;;;;;;;6.53;2.13;;;24.90;99.90;;;;;;5048325;28;20024;-57
2022/08/28 12:15:26;;;;;;;7.60;1.83;;;25.00;99.90;;;;;;5047634;28;20091;-59
2022/08/28 12:17:57;;;;;;;7.63;1.90;;;24.90;99.90;;;;;;5043087;28;20082;-59
2022/08/28 12:20:26;;;;;;;18.67;1.98;;;24.80;99.90;;;;;;5040420;28;20033;-61
2022/08/28 12:22:55;;;;;;;4.68;1.65;;;25.20;99.90;;;;;;5045302;28;20036;-63
2022/08/28 12:25:28;;;;;;;9.60;2.20;;;25.60;99.90;;;;;;5047714;28;20037;-60
2022/08/28 12:27:57;;;;;;;10.75;1.60;;;25.50;99.90;;;;;;5039115;28;20040;-62
2022/08/28 12:30:39;;;;;;;5.30;1.75;;;25.20;99.90;;;;;;5053632;28;20026;-59
2022/08/28 12:33:19;;;;;;;12.27;2.42;;;24.80;99.90;;;;;;5052201;28;20067;-59
2022/08/28 12:35:45;;;;;;;9.43;1.90;;;24.90;99.90;;;;;;5048051;28;20017;-60
2022/08/28 12:38:19;;;;;;;5.72;1.63;;;25.30;99.90;;;;;;5047298;28;20078;-61
2022/08/28 12:40:49;;;;;;;7.20;1.92;;;25.70;99.90;;;;;;5048055;28;20021;-61
2022/08/28 12:43:28;;;;;;;8.95;1.77;;;26.40;99.90;;;;;;5040544;28;20029;-60
2022/08/28 12:45:56;;;;;;;10.85;1.90;;;26.60;99.90;;;;;;5041460;28;20037;-58
2022/08/28 12:48:30;;;;;;;6.88;2.40;;;27.20;99.90;;;;;;5057053;28;20131;-61
2022/08/28 12:50:57;;;;;;;;;;;27.20;99.90;;;;;;5045809;28;20431;-60
2022/08/28 12:53:23;;;;;;;10.38;2.08;;;27.30;99.90;;;;;;5047074;28;20294;-65
2022/08/28 12:55:48;;;;;;;8.50;1.88;;;27.00;99.90;;;;;;5044743;28;20032;-62
2022/08/28 12:58:30;;;;;;;9.43;2.30;;;26.50;99.90;;;;;;5051492;28;20475;-59
2022/08/28 13:01:01;;;;;;;6.95;2.53;;;26.40;99.90;;;;;;5043575;28;20403;-61
2022/08/28 13:03:28;;;;;;;7.38;1.70;;;26.10;99.90;;;;;;5044580;28;20032;-61
2022/08/28 13:06:03;;;;;;;6.85;2.08;;;25.80;99.90;;;;;;5035050;28;20103;-63
2022/08/28 13:08:30;;;;;;;12.23;2.05;;;26.00;99.90;;;;;;5041861;28;20390;-60